createdAt,value
2024-05-09T00:01:38.403Z,100.00
2024-05-09T00:04:10.007Z,100.00
2024-05-09T00:06:44.148Z,100.00
2024-05-09T00:09:18.263Z,100.00
2024-05-09T00:11:52.088Z,100.00
2024-05-09T00:14:26.478Z,100.00
2024-05-09T00:17:04.245Z,100.00
2024-05-09T00:19:37.472Z,100.00
2024-05-09T00:22:13.720Z,100.00
2024-05-09T00:24:49.644Z,100.00
2024-05-09T00:27:26.964Z,100.00
2024-05-09T00:30:07.098Z,100.00
2024-05-09T00:32:43.239Z,100.00
2024-05-09T00:35:17.430Z,100.00
2024-05-09T00:37:51.026Z,100.00
2024-05-09T00:40:34.691Z,100.00
2024-05-09T00:43:16.452Z,100.00
2024-05-09T00:45:55.569Z,100.00
2024-05-09T00:48:30.101Z,100.00
2024-05-09T00:51:06.627Z,100.00
2024-05-09T00:53:41.380Z,100.00
2024-05-09T00:56:17.268Z,100.00
2024-05-09T00:58:52.718Z,100.00
2024-05-09T01:01:32.699Z,100.00
2024-05-09T01:04:05.733Z,100.00
2024-05-09T01:06:43.765Z,100.00
2024-05-09T01:09:20.861Z,100.00
2024-05-09T01:11:55.007Z,100.00
2024-05-09T01:14:28.571Z,100.00
2024-05-09T01:17:04.617Z,100.00
2024-05-09T01:19:39.543Z,100.00
2024-05-09T01:22:14.594Z,100.00
2024-05-09T01:24:56.232Z,100.00
2024-05-09T01:27:30.905Z,100.00
2024-05-09T01:30:11.936Z,100.00
2024-05-09T06:28:51.284Z,100.00
2024-05-09T06:31:24.876Z,100.00
2024-05-09T06:33:59.032Z,100.00
2024-05-09T06:36:30.560Z,100.00
2024-05-09T06:39:03.009Z,100.00
2024-05-09T06:41:34.749Z,100.00
2024-05-09T06:44:12.870Z,100.00
2024-05-09T06:46:42.430Z,100.00
2024-05-09T06:49:18.625Z,100.00
2024-05-09T06:51:49.668Z,100.00
2024-05-09T06:54:23.704Z,100.00
2024-05-09T06:56:54.397Z,100.00
2024-05-09T06:59:31.198Z,100.00
2024-05-09T07:02:01.339Z,100.00
2024-05-09T07:04:35.536Z,100.00
2024-05-09T07:07:07.714Z,100.00
2024-05-09T07:09:41.834Z,100.00
2024-05-09T07:12:14.042Z,100.00
2024-05-09T07:14:53.768Z,100.00
2024-05-09T07:17:30.527Z,100.00
2024-05-09T07:20:22.936Z,99.23
2024-05-09T07:23:16.243Z,100.00
2024-05-09T07:25:52.663Z,99.68
2024-05-09T07:28:24.255Z,92.84
2024-05-09T07:31:12.845Z,95.13
2024-05-09T07:34:24.193Z,91.81
2024-05-09T07:45:39.018Z,85.78
2024-05-09T07:53:08.041Z,83.17
2024-05-09T07:54:01.854Z,83.05
2024-05-09T08:00:32.145Z,82.56
2024-05-09T08:07:33.052Z,80.65
2024-05-09T08:10:30.802Z,75.57
2024-05-09T08:13:12.287Z,73.81
2024-05-09T08:15:50.264Z,70.62
2024-05-09T08:18:24.540Z,72.36
2024-05-09T08:21:19.860Z,76.90
2024-05-09T08:23:54.161Z,73.70
2024-05-09T08:26:32.681Z,72.93
2024-05-09T08:29:05.362Z,74.23
2024-05-09T08:31:45.115Z,71.72
2024-05-09T08:34:21.971Z,77.44
2024-05-09T08:36:57.551Z,73.63
2024-05-09T08:39:31.375Z,76.88
2024-05-09T08:42:04.669Z,70.93
2024-05-09T08:44:36.002Z,70.25
2024-05-09T08:47:10.945Z,68.77
2024-05-09T08:49:41.692Z,67.60
2024-05-09T08:52:18.919Z,68.34
2024-05-09T08:54:52.397Z,67.58
2024-05-09T08:57:25.748Z,71.49
2024-05-09T08:59:57.025Z,70.64
2024-05-09T09:02:31.738Z,71.43
2024-05-09T09:05:04.088Z,73.61
2024-05-09T09:07:38.712Z,69.55
2024-05-09T09:10:21.097Z,68.75
2024-05-09T09:13:00.730Z,68.31
2024-05-09T09:15:32.691Z,68.26
2024-05-09T09:18:04.943Z,67.66
2024-05-09T09:20:38.140Z,64.95
2024-05-09T09:23:13.025Z,70.40
2024-05-09T09:25:47.819Z,68.82
2024-05-09T09:28:21.036Z,66.57
2024-05-09T09:30:51.546Z,69.01
2024-05-09T09:33:26.378Z,69.76
2024-05-09T09:35:57.160Z,65.32
2024-05-09T09:38:32.057Z,64.33
2024-05-09T09:41:06.181Z,66.21
2024-05-09T09:43:39.535Z,67.85
2024-05-09T09:46:13.136Z,65.03
2024-05-09T09:48:46.933Z,56.00
2024-05-09T09:51:17.902Z,65.14
2024-05-09T09:53:51.073Z,65.88
2024-05-09T09:56:23.893Z,64.24
2024-05-09T09:58:57.297Z,62.40
2024-05-09T10:01:27.539Z,67.81
2024-05-09T10:04:00.985Z,64.56
2024-05-09T10:06:35.578Z,63.46
2024-05-09T10:09:08.394Z,59.24
2024-05-09T10:11:49.157Z,61.43
2024-05-09T10:14:25.558Z,60.92
2024-05-09T10:17:03.996Z,65.66
2024-05-09T10:19:37.162Z,65.94
2024-05-09T10:22:09.035Z,65.73
2024-05-09T10:24:52.524Z,65.03
2024-05-09T10:27:31.054Z,64.35
2024-05-09T10:30:11.500Z,64.70
2024-05-09T10:32:45.465Z,64.61
2024-05-09T10:35:19.678Z,65.41
2024-05-09T10:37:48.242Z,66.69
2024-05-09T10:40:29.118Z,66.60
2024-05-09T10:43:06.357Z,66.50
2024-05-09T10:45:39.876Z,65.36
2024-05-09T10:48:11.334Z,67.31
2024-05-09T10:50:47.217Z,67.08
2024-05-09T10:53:19.266Z,63.65
2024-05-09T10:55:58.617Z,62.50
2024-05-09T10:58:32.016Z,66.77
2024-05-09T11:01:07.406Z,64.89
2024-05-09T11:03:35.997Z,63.78
2024-05-09T11:06:10.993Z,63.01
2024-05-09T11:08:45.180Z,64.59
2024-05-09T11:11:18.472Z,60.75
2024-05-09T11:13:51.738Z,60.46
2024-05-09T11:16:24.618Z,66.76
2024-05-09T11:18:56.152Z,64.73
2024-05-09T11:21:29.480Z,62.73
2024-05-09T11:24:05.992Z,64.45
2024-05-09T11:26:45.761Z,58.80
2024-05-09T11:29:20.252Z,58.93
2024-05-09T11:31:55.993Z,57.00
2024-05-09T11:34:27.783Z,60.24
2024-05-09T11:37:00.830Z,60.20
2024-05-09T11:39:32.383Z,60.55
2024-05-09T11:42:05.679Z,65.00
2024-05-09T11:44:36.110Z,61.47
2024-05-09T11:47:12.661Z,61.55
2024-05-09T11:49:43.255Z,59.68
2024-05-09T11:52:16.501Z,60.64
2024-05-09T11:54:47.042Z,57.73
2024-05-09T11:57:20.442Z,58.67
2024-05-09T11:59:54.094Z,60.46
2024-05-09T12:02:29.958Z,66.22
2024-05-09T12:05:01.387Z,67.09
2024-05-09T12:07:34.880Z,68.25
2024-05-09T12:10:11.712Z,68.69
2024-05-09T12:12:45.739Z,70.20
2024-05-09T12:15:19.286Z,69.94
2024-05-09T12:17:54.257Z,71.19
2024-05-09T12:20:34.384Z,65.46
2024-05-09T12:23:11.471Z,69.57
2024-05-09T12:25:46.685Z,68.75
2024-05-09T12:28:26.705Z,67.99
2024-05-09T12:31:01.061Z,68.31
2024-05-09T12:33:38.279Z,66.80
2024-05-09T12:36:12.215Z,68.15
2024-05-09T12:38:52.487Z,70.03
2024-05-09T12:41:26.878Z,69.80
2024-05-09T12:44:02.105Z,72.82
2024-05-09T12:46:36.244Z,73.72
2024-05-09T12:49:10.535Z,75.16
2024-05-09T12:51:41.179Z,73.37
2024-05-09T12:54:12.647Z,73.97
2024-05-09T12:56:43.956Z,73.55
2024-05-09T12:59:17.609Z,70.83
2024-05-09T13:01:50.933Z,69.52
2024-05-09T13:04:25.019Z,69.24
2024-05-09T13:06:55.754Z,68.48
2024-05-09T13:09:32.364Z,67.33
2024-05-09T13:12:03.220Z,68.32
2024-05-09T13:14:39.190Z,68.68
2024-05-09T13:17:14.090Z,67.36
2024-05-09T13:19:47.206Z,66.83
2024-05-09T13:22:17.795Z,67.46
2024-05-09T13:24:51.222Z,68.66
2024-05-09T13:27:21.332Z,67.35
2024-05-09T13:29:57.614Z,65.75
2024-05-09T13:32:33.669Z,67.17
2024-05-09T13:35:07.802Z,67.81
2024-05-09T13:37:38.203Z,65.51
2024-05-09T13:40:14.213Z,65.11
2024-05-09T13:42:45.663Z,69.31
2024-05-09T13:45:20.161Z,68.27
2024-05-09T13:47:54.014Z,68.28
2024-05-09T13:50:33.606Z,67.36
2024-05-09T13:53:10.023Z,67.79
2024-05-09T13:55:39.988Z,73.72
2024-05-09T13:58:14.982Z,71.38
2024-05-09T14:00:49.084Z,68.51
2024-05-09T14:03:27.193Z,73.77
2024-05-09T14:05:57.724Z,71.97
2024-05-09T14:08:30.837Z,72.55
2024-05-09T14:11:01.096Z,74.51
2024-05-09T14:13:34.921Z,72.35
2024-05-09T14:16:05.904Z,72.67
2024-05-09T14:18:41.625Z,73.27
2024-05-09T14:21:11.558Z,70.84
2024-05-09T14:23:45.042Z,73.25
2024-05-09T14:26:16.753Z,75.68
2024-05-09T14:28:51.174Z,74.44
2024-05-09T14:31:21.326Z,79.78
2024-05-09T14:33:57.060Z,79.43
2024-05-09T14:36:25.069Z,76.02
2024-05-09T14:39:02.617Z,80.22
2024-05-09T14:41:32.791Z,85.33
2024-05-09T14:44:08.910Z,84.51
2024-05-09T14:46:39.014Z,84.43
2024-05-09T14:49:18.349Z,82.65
2024-05-09T14:51:51.254Z,80.91
2024-05-09T14:54:24.795Z,82.03
2024-05-09T14:56:58.564Z,79.86
2024-05-09T14:59:31.491Z,79.43
2024-05-09T15:02:05.040Z,82.49
2024-05-09T15:04:41.101Z,82.47
2024-05-09T15:07:16.781Z,81.53
2024-05-09T15:09:50.404Z,79.92
2024-05-09T15:12:25.020Z,81.09
2024-05-09T15:14:57.755Z,79.73
2024-05-09T15:17:28.779Z,76.53
2024-05-09T15:20:09.218Z,77.90
2024-05-09T15:22:43.576Z,82.34
2024-05-09T15:25:17.274Z,87.42
2024-05-09T15:27:47.391Z,89.76
2024-05-09T15:30:28.219Z,93.96
2024-05-09T15:33:06.916Z,92.73
2024-05-09T15:35:46.767Z,96.19
2024-05-09T15:38:18.588Z,96.13
2024-05-09T15:40:52.148Z,93.62
2024-05-09T15:43:20.319Z,96.00
2024-05-09T15:45:53.379Z,94.60
2024-05-09T15:48:24.007Z,97.20
2024-05-09T15:51:01.156Z,97.51
2024-05-09T15:53:34.107Z,97.94
2024-05-09T15:56:04.028Z,98.97
2024-05-09T15:58:37.375Z,98.06
2024-05-09T16:01:07.449Z,98.04
2024-05-09T16:03:40.643Z,97.06
2024-05-09T16:06:13.804Z,95.87
2024-05-09T16:08:47.066Z,97.26
2024-05-09T16:11:17.735Z,93.91
2024-05-09T16:13:50.053Z,93.61
2024-05-09T16:16:24.027Z,92.38
2024-05-09T16:18:56.521Z,90.84
2024-05-09T16:21:29.439Z,92.77
2024-05-09T16:24:02.139Z,92.78
2024-05-09T16:26:32.029Z,97.30
2024-05-09T16:29:05.009Z,94.78
2024-05-09T16:31:35.508Z,94.30
2024-05-09T16:34:08.250Z,92.40
2024-05-09T16:36:53.002Z,92.94
2024-05-09T16:39:29.932Z,93.38
2024-05-09T16:42:00.033Z,89.55
2024-05-09T16:44:35.540Z,91.71
2024-05-09T16:47:06.498Z,91.18
2024-05-09T16:49:39.678Z,88.91
2024-05-09T16:52:13.242Z,88.64
2024-05-09T16:54:46.901Z,89.49
2024-05-09T16:57:17.075Z,89.50
2024-05-09T16:59:52.313Z,92.18
2024-05-09T17:02:25.572Z,91.31
2024-05-09T17:04:58.891Z,93.42
2024-05-09T17:07:31.436Z,96.96
2024-05-09T17:10:08.243Z,96.03
2024-05-09T17:12:39.931Z,98.74
2024-05-09T17:15:13.055Z,98.61
2024-05-09T17:17:46.154Z,99.52
2024-05-09T17:20:29.562Z,100.00
2024-05-09T17:23:13.676Z,100.00
2024-05-09T17:25:48.383Z,100.00
2024-05-09T17:28:18.499Z,100.00
2024-05-09T17:30:54.199Z,100.00
2024-05-09T17:33:26.274Z,100.00
2024-05-09T17:35:59.474Z,100.00
2024-05-09T17:38:32.589Z,100.00
2024-05-09T17:41:06.490Z,100.00
2024-05-09T17:43:37.563Z,100.00
2024-05-09T17:46:14.641Z,100.00
2024-05-09T17:48:45.472Z,100.00
2024-05-09T17:51:18.550Z,100.00
2024-05-09T17:53:52.144Z,100.00
2024-05-09T17:56:26.852Z,100.00
2024-05-09T17:58:59.307Z,100.00
2024-05-09T18:01:32.279Z,100.00
2024-05-09T18:04:02.524Z,100.00
2024-05-09T18:06:35.972Z,100.00
2024-05-09T18:09:09.233Z,100.00
2024-05-09T18:11:43.457Z,100.00
2024-05-09T18:14:13.870Z,100.00
2024-05-09T18:16:46.693Z,100.00
2024-05-09T18:19:17.105Z,100.00
2024-05-09T18:21:51.959Z,100.00
2024-05-09T18:24:27.443Z,100.00
2024-05-09T18:27:03.337Z,100.00
2024-05-09T18:29:33.689Z,100.00
2024-05-09T18:32:06.976Z,100.00
2024-05-09T18:34:37.414Z,100.00
2024-05-09T18:37:10.414Z,100.00
2024-05-09T18:39:45.170Z,100.00
2024-05-09T18:42:18.336Z,100.00
2024-05-09T18:44:48.896Z,100.00
2024-05-09T18:47:22.955Z,100.00
2024-05-09T18:49:55.116Z,100.00
2024-05-09T18:52:28.346Z,100.00
2024-05-09T18:55:01.203Z,100.00
2024-05-09T18:57:35.048Z,100.00
2024-05-09T19:00:19.349Z,100.00
2024-05-09T19:03:00.576Z,100.00
2024-05-09T19:05:30.961Z,100.00
2024-05-09T19:08:05.178Z,100.00
2024-05-09T19:10:39.027Z,100.00
2024-05-09T19:13:13.883Z,100.00
2024-05-09T19:15:45.368Z,100.00
2024-05-09T19:18:18.846Z,100.00
2024-05-09T19:20:49.832Z,100.00
2024-05-09T19:23:23.523Z,100.00
2024-05-09T19:25:57.825Z,100.00
2024-05-09T19:28:31.772Z,100.00
2024-05-09T19:31:00.437Z,100.00
2024-05-09T19:33:35.156Z,100.00
2024-05-09T19:36:03.728Z,100.00
2024-05-09T19:38:37.896Z,100.00
2024-05-09T19:41:11.049Z,100.00
2024-05-09T19:43:44.948Z,100.00
2024-05-09T19:46:16.529Z,100.00
2024-05-09T19:48:51.344Z,100.00
2024-05-09T19:51:19.942Z,100.00
2024-05-09T19:53:55.482Z,100.00
2024-05-09T19:56:28.844Z,100.00
2024-05-09T19:59:01.850Z,100.00
2024-05-09T20:01:32.184Z,100.00
2024-05-09T20:04:05.352Z,100.00
2024-05-09T20:06:37.676Z,100.00
2024-05-09T20:09:10.771Z,100.00
2024-05-09T20:11:47.591Z,100.00
2024-05-09T20:14:17.567Z,100.00
2024-05-09T20:16:50.877Z,100.00
2024-05-09T20:19:21.328Z,100.00
2024-05-09T20:21:54.253Z,100.00
2024-05-09T20:24:24.930Z,100.00
2024-05-09T20:27:03.585Z,100.00
2024-05-09T20:29:36.345Z,100.00
2024-05-09T20:32:09.770Z,100.00
2024-05-09T20:34:41.252Z,100.00
2024-05-09T20:37:14.602Z,100.00
2024-05-09T20:39:45.275Z,100.00
2024-05-09T20:42:21.081Z,100.00
2024-05-09T20:44:51.558Z,100.00
2024-05-09T20:47:24.248Z,100.00
2024-05-09T20:49:55.368Z,100.00
2024-05-09T20:52:28.227Z,100.00
2024-05-09T20:54:58.262Z,100.00
2024-05-09T20:57:34.132Z,100.00
2024-05-09T21:00:12.059Z,100.00
2024-05-09T21:02:50.953Z,100.00
2024-05-09T21:05:21.510Z,100.00
2024-05-09T21:07:55.038Z,100.00
2024-05-09T21:10:26.365Z,100.00
2024-05-09T21:13:03.424Z,100.00
2024-05-09T21:15:34.184Z,100.00
2024-05-09T21:18:07.268Z,100.00
2024-05-09T21:20:38.016Z,100.00
2024-05-09T21:23:12.101Z,100.00
2024-05-09T21:25:42.471Z,100.00
2024-05-09T21:28:19.414Z,100.00
2024-05-09T21:30:49.372Z,100.00
2024-05-09T21:33:22.386Z,100.00
2024-05-09T21:35:52.814Z,100.00
2024-05-09T21:38:25.889Z,100.00
2024-05-09T21:40:56.236Z,100.00
2024-05-09T21:43:34.576Z,100.00
2024-05-09T21:46:04.713Z,100.00
2024-05-09T21:48:39.259Z,100.00
2024-05-09T21:51:13.978Z,100.00
2024-05-09T21:53:46.619Z,100.00
2024-05-09T21:56:17.239Z,100.00
2024-05-09T21:58:54.968Z,100.00
2024-05-09T22:01:26.545Z,100.00
2024-05-09T22:04:00.246Z,100.00
2024-05-09T22:06:30.926Z,100.00
2024-05-09T22:09:05.873Z,100.00
2024-05-09T22:11:37.007Z,100.00
2024-05-09T22:14:12.696Z,100.00
2024-05-09T22:16:42.876Z,100.00
2024-05-09T22:19:15.595Z,100.00
2024-05-09T22:21:45.602Z,100.00
2024-05-09T22:24:18.478Z,100.00
2024-05-09T22:26:48.215Z,100.00
2024-05-09T22:29:22.169Z,100.00
2024-05-09T22:31:51.981Z,100.00
2024-05-09T22:34:25.112Z,100.00
2024-05-09T22:36:55.975Z,100.00
2024-05-09T22:39:28.551Z,100.00
2024-05-09T22:41:58.422Z,100.00
2024-05-09T22:44:34.566Z,100.00
2024-05-09T22:47:04.639Z,100.00
2024-05-09T22:49:35.726Z,100.00
2024-05-09T22:52:06.040Z,100.00
2024-05-09T22:54:41.224Z,100.00
2024-05-09T22:57:11.173Z,100.00
2024-05-09T22:59:46.647Z,100.00
2024-05-09T23:02:16.959Z,100.00
2024-05-09T23:04:50.353Z,100.00
2024-05-09T23:07:19.953Z,100.00
2024-05-09T23:09:52.883Z,100.00
2024-05-09T23:12:22.870Z,100.00
2024-05-09T23:15:00.428Z,100.00
2024-05-09T23:17:30.578Z,100.00
2024-05-09T23:20:05.265Z,100.00
2024-05-09T23:22:39.015Z,100.00
2024-05-09T23:25:12.168Z,100.00
2024-05-09T23:27:42.539Z,100.00
2024-05-09T23:30:29.147Z,100.00
2024-05-09T23:33:07.081Z,100.00
2024-05-09T23:35:42.362Z,100.00
2024-05-09T23:38:11.834Z,100.00
2024-05-09T23:40:45.401Z,100.00
2024-05-09T23:43:14.390Z,100.00
2024-05-09T23:45:49.874Z,100.00
2024-05-09T23:48:20.103Z,100.00
2024-05-09T23:50:50.688Z,100.00
2024-05-09T23:53:21.531Z,100.00
2024-05-09T23:55:56.740Z,100.00
2024-05-09T23:58:29.309Z,100.00
